Aledo, Texas
Current Conditions -  °F | °C
As of 8:52 PM on Thursday 18 Dec 2014 (Local Time) from KNFW Reporting Station
Overcast Overcast  
Wind Chill: 51°   Ceiling: 2400
Heat Index: 51°   Visibility: 10mi
Dew Point: 42°   Wind: 7mph
Humidity: 71%   Direction: 90°E
Pressure: 30.21"   Gusts: NA
Location:  32.7°N, 97.6°W
Report Text: KNFW 190252Z 09006KT 10SM OVC024 11/06 A3021 RMK AO2 SLP213 T01060056 51017
Loading
Personal Weather Stations






























Interactive Weather Map New forecast layout! Learn more

10-Day Weather Forecast

Advertisements
Track Severe Weather on mobile